Time;durP1;ratioP1;P1;durP2;ratioP2;P2;SDS_P1;SDS_P2;PMS_P1;PMS_P2;Temp;Humidity;BMP_temperature;BMP_pressure;BME280_temperature;BME280_humidity;BME280_pressure;Samples;Min_cycle;Max_cycle;Signal;HPM_P1;HPM_P2
2021/03/15 00:00:50;;;;;;;3.47;1.90;;;8.10;99.90;;;;;;5024784;28;20199;-80
2021/03/15 00:03:17;;;;;;;4.18;2.60;;;8.20;99.90;;;;;;5029751;28;20219;-80
2021/03/15 00:05:43;;;;;;;4.68;2.47;;;8.20;99.90;;;;;;5031158;28;20277;-80
2021/03/15 00:08:11;;;;;;;7.20;2.92;;;8.10;99.90;;;;;;5030859;28;20211;-80
2021/03/15 00:10:38;;;;;;;4.65;2.83;;;8.20;99.90;;;;;;5027616;28;20207;-80
2021/03/15 00:13:05;;;;;;;5.88;1.88;;;8.20;99.90;;;;;;5030753;28;20215;-80
2021/03/15 00:15:32;;;;;;;4.93;2.50;;;8.10;99.90;;;;;;5030967;28;20203;-80
2021/03/15 00:17:58;;;;;;;3.80;2.40;;;8.20;99.90;;;;;;5013245;28;20219;-80
2021/03/15 00:20:24;;;;;;;4.80;2.67;;;8.20;99.90;;;;;;5025707;28;20216;-80
2021/03/15 00:22:51;;;;;;;2.65;2.40;;;8.20;99.90;;;;;;5015628;28;20248;-80
2021/03/15 00:25:19;;;;;;;3.53;2.30;;;8.20;99.90;;;;;;5030718;28;20223;-80
2021/03/15 00:27:46;;;;;;;3.10;2.75;;;8.10;99.90;;;;;;5030513;28;20215;-79
2021/03/15 00:30:14;;;;;;;2.65;2.20;;;8.20;99.90;;;;;;5016432;28;20292;-80
2021/03/15 00:32:44;;;;;;;3.40;2.40;;;8.20;99.90;;;;;;5010716;28;20226;-79
2021/03/15 00:35:11;;;;;;;5.05;2.65;;;8.10;99.90;;;;;;5029834;28;20212;-79
2021/03/15 00:37:38;;;;;;;4.63;2.40;;;8.10;99.90;;;;;;5029530;28;20199;-79
2021/03/15 00:40:06;;;;;;;4.10;2.90;;;8.10;99.90;;;;;;5030226;28;20717;-80
2021/03/15 00:42:34;;;;;;;3.00;2.70;;;8.20;99.90;;;;;;5026352;28;20219;-79
2021/03/15 00:45:00;;;;;;;2.97;2.63;;;8.20;99.90;;;;;;5027978;28;20215;-79
2021/03/15 00:47:27;;;;;;;3.85;3.17;;;8.10;99.90;;;;;;5031671;28;20202;-79
2021/03/15 00:49:53;;;;;;;3.00;2.70;;;8.10;99.90;;;;;;5034304;28;20417;-79
2021/03/15 00:52:19;;;;;;;4.88;2.53;;;8.10;99.90;;;;;;5022580;28;20220;-79
2021/03/15 00:54:46;;;;;;;5.00;2.60;;;8.20;99.90;;;;;;5032525;28;20215;-79
2021/03/15 00:57:12;;;;;;;3.60;2.70;;;8.10;99.90;;;;;;5033637;28;20222;-79
2021/03/15 00:59:39;;;;;;;3.42;3.13;;;8.10;99.90;;;;;;5016074;28;20556;-81
2021/03/15 01:02:05;;;;;;;4.05;2.30;;;8.10;99.90;;;;;;5023644;28;20220;-79
2021/03/15 01:04:32;;;;;;;3.60;2.80;;;8.10;99.90;;;;;;5029904;28;20475;-79
2021/03/15 01:06:58;;;;;;;2.63;2.40;;;8.10;99.90;;;;;;5020033;28;20715;-79
2021/03/15 01:09:24;;;;;;;5.32;3.05;;;8.10;99.90;;;;;;5015352;28;20216;-80
2021/03/15 01:11:50;;;;;;;3.03;2.55;;;8.10;99.90;;;;;;5033181;28;20216;-80
2021/03/15 01:14:17;;;;;;;2.95;2.60;;;8.10;99.90;;;;;;5033763;28;20191;-80
2021/03/15 01:16:44;;;;;;;4.93;3.05;;;8.10;99.90;;;;;;5016743;28;20674;-80
2021/03/15 01:19:10;;;;;;;2.58;2.28;;;8.10;99.90;;;;;;5014243;28;20216;-78
2021/03/15 01:21:36;;;;;;;4.82;2.47;;;8.10;99.90;;;;;;5017690;28;20196;-79
2021/03/15 01:24:03;;;;;;;3.55;2.72;;;8.10;99.90;;;;;;5033214;28;20630;-79
2021/03/15 01:26:29;;;;;;;4.47;3.22;;;8.10;99.90;;;;;;5033908;28;20683;-79
2021/03/15 01:28:55;;;;;;;6.82;3.50;;;8.10;99.90;;;;;;5033755;28;20199;-79
2021/03/15 01:31:21;;;;;;;4.03;3.10;;;8.10;99.90;;;;;;5033814;28;20219;-79
2021/03/15 01:33:48;;;;;;;5.05;3.30;;;8.00;99.90;;;;;;5030563;28;20219;-79
2021/03/15 01:36:15;;;;;;;5.68;3.95;;;8.10;99.90;;;;;;5033376;28;20211;-79
2021/03/15 01:38:41;;;;;;;6.63;3.70;;;8.00;99.90;;;;;;5033150;28;20191;-80
2021/03/15 01:41:08;;;;;;;3.67;3.33;;;8.10;99.90;;;;;;5031330;28;20219;-79
2021/03/15 01:43:34;;;;;;;8.32;3.47;;;8.10;99.90;;;;;;5032825;28;20574;-79
2021/03/15 01:46:01;;;;;;;4.50;2.45;;;8.00;99.90;;;;;;5029025;28;20286;-79
2021/03/15 01:48:27;;;;;;;5.25;2.75;;;8.10;99.90;;;;;;5013121;28;20223;-79
2021/03/15 01:50:54;;;;;;;4.40;2.70;;;8.10;99.90;;;;;;5013169;28;20228;-79
2021/03/15 01:53:21;;;;;;;3.80;3.50;;;8.10;99.90;;;;;;5018152;28;20208;-80
2021/03/15 01:55:49;;;;;;;8.20;4.22;;;8.10;99.90;;;;;;5029960;28;20224;-79
2021/03/15 01:58:16;;;;;;;3.20;2.78;;;8.10;99.90;;;;;;5013042;28;20200;-79
2021/03/15 02:00:43;;;;;;;5.57;2.85;;;8.10;99.90;;;;;;5015108;28;20709;-79
2021/03/15 02:03:10;;;;;;;2.90;2.60;;;8.10;99.90;;;;;;5017306;28;20223;-80
2021/03/15 02:05:40;;;;;;;3.50;2.47;;;8.10;99.90;;;;;;5032966;28;20232;-79
2021/03/15 02:08:08;;;;;;;3.38;2.50;;;8.10;99.90;;;;;;5017757;28;20223;-79
2021/03/15 02:10:35;;;;;;;5.70;2.70;;;8.10;99.90;;;;;;5028771;28;20219;-78
2021/03/15 02:13:17;;;;;;;4.30;2.70;;;8.10;99.90;;;;;;5031886;28;20207;-79
2021/03/15 02:15:56;;;;;;;3.80;2.20;;;8.10;99.90;;;;;;5025455;28;20703;-78
2021/03/15 02:18:28;;;;;;;3.47;2.40;;;8.10;99.90;;;;;;5032237;28;20219;-76
2021/03/15 02:21:34;;;;;;;3.58;2.65;;;8.00;99.90;;;;;;5025965;28;20290;-78
2021/03/15 02:24:09;;;;;;;3.63;2.65;;;8.00;99.90;;;;;;5022894;28;20215;-78
2021/03/15 02:27:04;;;;;;;3.42;3.13;;;8.00;99.90;;;;;;5013308;28;20603;-78
2021/03/15 02:30:06;;;;;;;4.55;3.40;;;8.00;99.90;;;;;;5012801;28;20219;-79
2021/03/15 02:32:50;;;;;;;7.25;3.03;;;8.00;99.90;;;;;;5007764;28;20626;-78
2021/03/15 02:35:19;;;;;;;4.20;3.40;;;8.00;99.90;;;;;;5032337;28;20206;-79
2021/03/15 02:37:49;;;;;;;3.72;3.15;;;8.00;99.90;;;;;;5025758;28;20195;-78
2021/03/15 02:40:23;;;;;;;2.70;2.50;;;8.10;99.90;;;;;;5031243;28;20195;-79
2021/03/15 02:42:53;;;;;;;3.67;2.83;;;8.00;99.90;;;;;;5031082;28;20220;-78
2021/03/15 02:45:19;;;;;;;3.58;3.28;;;8.00;99.90;;;;;;5031789;28;20207;-78
2021/03/15 02:47:47;;;;;;;4.50;3.28;;;8.00;99.90;;;;;;5032273;28;20801;-78
2021/03/15 02:50:15;;;;;;;3.83;3.53;;;8.00;99.90;;;;;;5029494;28;20238;-78
2021/03/15 02:52:45;;;;;;;4.40;2.80;;;8.00;99.90;;;;;;5031228;28;20269;-79
2021/03/15 02:55:14;;;;;;;3.22;3.03;;;7.90;99.90;;;;;;5031395;28;20708;-79
2021/03/15 02:57:44;;;;;;;3.22;2.92;;;8.00;99.90;;;;;;5032265;28;20560;-78
2021/03/15 03:00:12;;;;;;;2.80;2.55;;;8.00;99.90;;;;;;5013998;28;20266;-79
2021/03/15 03:02:42;;;;;;;2.53;2.33;;;8.00;99.90;;;;;;5014930;28;20192;-79
2021/03/15 03:05:10;;;;;;;3.08;2.78;;;8.00;99.90;;;;;;5031617;28;20216;-78
2021/03/15 03:07:40;;;;;;;3.47;2.85;;;8.00;99.90;;;;;;5018921;28;20227;-78
2021/03/15 03:10:09;;;;;;;3.50;3.03;;;8.00;99.90;;;;;;5024579;28;20571;-79
2021/03/15 03:12:38;;;;;;;4.18;3.50;;;7.90;99.90;;;;;;5030571;28;20227;-79
2021/03/15 03:15:07;;;;;;;3.33;2.63;;;8.00;99.90;;;;;;5016258;28;20290;-79
2021/03/15 03:17:38;;;;;;;3.50;3.10;;;8.00;99.90;;;;;;5011535;28;20312;-79
2021/03/15 03:20:07;;;;;;;2.95;2.65;;;8.00;99.90;;;;;;5011885;28;20235;-79
2021/03/15 03:22:34;;;;;;;3.05;2.85;;;8.00;99.90;;;;;;5012417;28;20216;-79
2021/03/15 03:25:01;;;;;;;5.65;3.00;;;8.00;99.90;;;;;;5030965;28;20625;-79
2021/03/15 03:27:28;;;;;;;3.13;2.90;;;8.00;99.90;;;;;;5018183;28;20220;-79
2021/03/15 03:29:55;;;;;;;2.72;2.50;;;7.90;99.90;;;;;;5011735;28;20220;-78
2021/03/15 03:32:22;;;;;;;3.50;2.47;;;8.00;99.90;;;;;;5027906;28;20215;-79
2021/03/15 03:34:50;;;;;;;2.50;2.30;;;8.00;99.90;;;;;;5015986;28;20196;-80
2021/03/15 03:37:16;;;;;;;2.70;2.50;;;8.00;99.90;;;;;;5031153;28;20629;-80
2021/03/15 03:39:42;;;;;;;2.90;2.55;;;8.00;99.90;;;;;;5023781;28;20235;-79
2021/03/15 03:42:09;;;;;;;3.10;2.80;;;8.00;99.90;;;;;;5019987;28;20273;-80
2021/03/15 03:44:36;;;;;;;2.20;2.00;;;8.00;99.90;;;;;;5024027;28;20196;-79
2021/03/15 03:47:03;;;;;;;3.35;1.80;;;8.00;99.90;;;;;;5010881;28;20228;-78
2021/03/15 03:49:29;;;;;;;2.03;1.73;;;8.00;99.90;;;;;;5011123;28;20215;-80
2021/03/15 03:52:00;;;;;;;2.45;2.25;;;7.90;99.90;;;;;;5011724;28;20785;-80
2021/03/15 03:54:28;;;;;;;2.67;2.10;;;8.00;99.90;;;;;;5012790;28;20343;-80
2021/03/15 03:56:59;;;;;;;2.40;2.10;;;8.00;99.90;;;;;;5031276;28;20698;-80
2021/03/15 03:59:28;;;;;;;1.88;1.63;;;7.90;99.90;;;;;;5031037;28;20223;-80
2021/03/15 04:01:59;;;;;;;3.60;2.47;;;7.90;99.90;;;;;;5015267;28;20247;-80
2021/03/15 04:04:28;;;;;;;2.05;1.85;;;8.00;99.90;;;;;;5028554;28;20223;-80
2021/03/15 04:06:54;;;;;;;1.90;1.70;;;8.00;99.90;;;;;;5029123;28;20324;-79
2021/03/15 04:09:27;;;;;;;1.85;1.75;;;8.00;99.90;;;;;;5017802;28;20211;-79
2021/03/15 04:11:57;;;;;;;1.70;1.60;;;8.00;99.90;;;;;;5030001;28;20216;-80
2021/03/15 04:14:27;;;;;;;1.77;1.65;;;8.00;99.90;;;;;;5015264;28;20310;-79
2021/03/15 04:16:56;;;;;;;1.73;1.63;;;8.00;99.90;;;;;;5030541;28;20837;-80
2021/03/15 04:19:26;;;;;;;1.85;1.70;;;8.00;99.90;;;;;;5026829;28;20243;-80
2021/03/15 04:21:59;;;;;;;1.70;1.40;;;8.00;99.90;;;;;;5031014;28;20222;-80
2021/03/15 04:24:27;;;;;;;1.77;1.60;;;7.90;99.90;;;;;;5035008;28;20233;-79
2021/03/15 04:26:53;;;;;;;2.92;1.80;;;8.00;99.90;;;;;;5031053;28;20227;-79
2021/03/15 04:29:20;;;;;;;2.10;1.70;;;8.00;99.90;;;;;;5033355;28;20261;-78
2021/03/15 04:31:47;;;;;;;1.88;1.40;;;8.00;99.90;;;;;;5031988;28;20231;-78
2021/03/15 04:34:16;;;;;;;1.80;1.70;;;8.00;99.90;;;;;;5021295;28;20187;-79
2021/03/15 04:36:43;;;;;;;2.40;1.70;;;7.90;99.90;;;;;;5033989;28;20218;-79
2021/03/15 04:39:10;;;;;;;1.60;1.50;;;7.90;99.90;;;;;;5034597;28;20195;-79
2021/03/15 04:41:37;;;;;;;2.17;1.98;;;8.00;99.90;;;;;;5032899;28;20207;-79
2021/03/15 04:44:05;;;;;;;2.15;1.98;;;7.90;99.90;;;;;;5026406;28;20191;-79
2021/03/15 04:46:31;;;;;;;1.95;1.60;;;7.90;99.90;;;;;;5034224;28;20219;-79
2021/03/15 04:49:03;;;;;;;3.25;2.08;;;8.00;99.90;;;;;;5034208;28;20219;-79
2021/03/15 04:51:31;;;;;;;2.35;1.83;;;7.90;99.90;;;;;;5028053;28;20228;-79
2021/03/15 04:53:57;;;;;;;1.73;1.60;;;8.00;99.90;;;;;;5034319;28;20643;-79
2021/03/15 04:56:25;;;;;;;2.08;1.75;;;8.00;99.90;;;;;;5032748;28;20215;-79
2021/03/15 04:58:53;;;;;;;2.83;2.63;;;7.90;99.90;;;;;;5023924;28;20223;-79
2021/03/15 05:01:20;;;;;;;2.28;1.98;;;8.00;99.90;;;;;;5033916;28;20274;-79
2021/03/15 05:03:51;;;;;;;2.28;2.08;;;8.00;99.90;;;;;;5032879;28;20634;-79
2021/03/15 05:06:19;;;;;;;2.20;2.00;;;7.90;99.90;;;;;;5032803;28;20855;-79
2021/03/15 05:08:49;;;;;;;2.78;2.20;;;8.00;99.90;;;;;;5033676;28;20191;-78
2021/03/15 05:11:17;;;;;;;4.35;2.10;;;7.90;99.90;;;;;;5033589;28;20215;-78
2021/03/15 05:13:44;;;;;;;1.92;1.83;;;8.00;99.90;;;;;;5022724;28;20193;-78
2021/03/15 05:16:11;;;;;;;2.20;2.00;;;8.00;99.90;;;;;;5027371;28;20215;-78
2021/03/15 05:18:38;;;;;;;3.00;1.83;;;8.00;99.90;;;;;;5032677;28;20602;-79
2021/03/15 05:21:06;;;;;;;2.20;1.80;;;7.90;99.90;;;;;;5014015;28;20212;-78
2021/03/15 05:23:34;;;;;;;2.20;2.00;;;7.90;99.90;;;;;;5013978;28;20203;-79
2021/03/15 05:26:02;;;;;;;2.25;2.05;;;7.90;99.90;;;;;;5025825;28;20231;-80
2021/03/15 05:28:30;;;;;;;1.70;1.60;;;7.90;99.90;;;;;;5024030;28;20269;-80
2021/03/15 05:31:02;;;;;;;2.05;1.85;;;7.90;99.90;;;;;;5034032;28;20204;-81
2021/03/15 05:33:32;;;;;;;2.95;2.22;;;7.90;99.90;;;;;;5033274;28;20188;-80
2021/03/15 05:35:59;;;;;;;2.08;1.92;;;7.90;99.90;;;;;;5033104;28;20207;-79
2021/03/15 05:38:25;;;;;;;1.98;1.63;;;7.90;99.90;;;;;;5020381;28;20237;-80
2021/03/15 05:40:53;;;;;;;4.10;2.40;;;7.90;99.90;;;;;;5033378;28;20199;-80
2021/03/15 05:43:33;;;;;;;2.33;2.10;;;7.90;99.90;;;;;;5027806;28;20204;-79
2021/03/15 05:46:34;;;;;;;3.13;2.30;;;7.90;99.90;;;;;;5024359;28;20270;-79
2021/03/15 05:49:33;;;;;;;3.15;2.42;;;7.80;99.90;;;;;;5018535;28;20215;-80
2021/03/15 05:52:09;;;;;;;2.63;2.42;;;7.90;99.90;;;;;;5031064;28;20250;-80
2021/03/15 05:55:04;;;;;;;3.03;2.05;;;7.80;99.90;;;;;;5033122;28;20310;-80
2021/03/15 05:58:06;;;;;;;1.92;1.75;;;7.90;99.90;;;;;;5029716;28;20219;-80
2021/03/15 06:00:45;;;;;;;2.30;1.80;;;7.80;99.90;;;;;;5019685;28;20223;-79
2021/03/15 06:03:21;;;;;;;3.08;2.40;;;7.80;99.90;;;;;;5033040;28;20227;-80
2021/03/15 06:05:53;;;;;;;3.03;2.35;;;7.80;99.90;;;;;;5026079;28;20728;-79
2021/03/15 06:08:21;;;;;;;2.05;1.88;;;7.90;99.90;;;;;;5032885;28;20724;-79
2021/03/15 06:11:04;;;;;;;2.10;1.92;;;7.80;99.90;;;;;;5022159;28;20272;-80
2021/03/15 06:13:32;;;;;;;1.75;1.50;;;7.80;99.90;;;;;;5031973;28;20215;-80
2021/03/15 06:16:00;;;;;;;3.38;3.08;;;7.80;99.90;;;;;;5025126;28;20220;-80
2021/03/15 06:18:27;;;;;;;3.53;1.95;;;7.80;99.90;;;;;;5032551;28;20208;-79
2021/03/15 06:20:54;;;;;;;2.50;2.30;;;7.70;99.90;;;;;;5031824;28;20554;-79
2021/03/15 06:23:20;;;;;;;2.45;2.25;;;7.80;99.90;;;;;;5032646;28;20196;-80
2021/03/15 06:25:48;;;;;;;2.05;1.95;;;7.80;99.90;;;;;;5032540;28;20223;-80
2021/03/15 06:28:16;;;;;;;2.30;1.95;;;7.80;99.90;;;;;;5023440;28;20222;-80
2021/03/15 06:30:42;;;;;;;2.80;1.80;;;7.80;99.90;;;;;;5032539;28;20196;-80
2021/03/15 06:33:11;;;;;;;2.83;2.00;;;7.80;99.90;;;;;;5032449;28;20199;-80
2021/03/15 06:35:39;;;;;;;1.80;1.70;;;7.70;99.90;;;;;;5024724;28;20216;-80
2021/03/15 06:38:06;;;;;;;3.40;2.25;;;7.80;99.90;;;;;;5015241;28;20583;-80
2021/03/15 06:40:34;;;;;;;2.08;1.88;;;7.80;99.90;;;;;;5031263;28;20204;-80
2021/03/15 06:43:03;;;;;;;1.70;1.60;;;7.90;99.90;;;;;;5030911;28;20226;-77
2021/03/15 06:45:30;;;;;;;1.63;1.52;;;7.90;99.90;;;;;;5027134;28;20745;-78
2021/03/15 06:47:57;;;;;;;2.22;1.90;;;7.90;99.90;;;;;;5022354;28;20691;-79
2021/03/15 06:50:24;;;;;;;1.92;1.83;;;7.90;99.90;;;;;;5031255;28;20231;-78
2021/03/15 06:52:55;;;;;;;2.13;1.75;;;7.90;99.90;;;;;;5031983;28;20206;-78
2021/03/15 06:55:23;;;;;;;2.58;1.98;;;7.90;99.90;;;;;;5031358;28;20301;-77
2021/03/15 06:57:49;;;;;;;2.55;2.28;;;7.90;99.90;;;;;;5031730;28;20196;-78
2021/03/15 07:00:18;;;;;;;2.67;2.20;;;7.90;99.90;;;;;;5031295;28;20215;-78
2021/03/15 07:02:45;;;;;;;2.58;2.00;;;8.00;99.90;;;;;;5023954;28;20765;-78
2021/03/15 07:05:13;;;;;;;3.15;1.80;;;8.00;99.90;;;;;;5029990;28;20211;-78
2021/03/15 07:07:48;;;;;;;2.45;1.75;;;7.90;99.90;;;;;;5023325;28;20702;-78
2021/03/15 07:10:16;;;;;;;2.30;2.05;;;7.90;99.90;;;;;;5013300;28;20199;-78
2021/03/15 07:12:43;;;;;;;1.98;1.77;;;8.00;99.90;;;;;;5024135;28;20224;-79
2021/03/15 07:15:11;;;;;;;2.00;1.75;;;8.10;99.90;;;;;;5011903;28;20197;-78
2021/03/15 07:17:37;;;;;;;1.73;1.63;;;8.20;99.90;;;;;;5011395;28;20223;-78
2021/03/15 07:20:05;;;;;;;2.38;1.77;;;8.40;99.90;;;;;;5031283;28;20187;-78
2021/03/15 07:22:32;;;;;;;1.90;1.52;;;8.50;99.90;;;;;;5030171;28;20192;-78
2021/03/15 07:25:04;;;;;;;2.08;1.65;;;8.70;99.90;;;;;;5030787;28;20223;-78
2021/03/15 07:27:31;;;;;;;1.92;1.73;;;8.80;99.90;;;;;;5031183;28;20227;-79
2021/03/15 07:29:57;;;;;;;1.77;1.60;;;9.00;99.90;;;;;;5030251;28;20206;-79
2021/03/15 07:32:40;;;;;;;1.73;1.40;;;9.10;99.90;;;;;;5027137;28;20468;-80
2021/03/15 07:35:26;;;;;;;1.60;1.30;;;9.20;99.90;;;;;;5011750;28;20683;-78
2021/03/15 07:37:52;;;;;;;2.30;1.60;;;9.30;99.90;;;;;;5011000;28;20212;-78
2021/03/15 07:40:41;;;;;;;5.13;1.70;;;9.40;99.90;;;;;;5030836;28;20246;-77
2021/03/15 07:43:09;;;;;;;2.03;1.67;;;9.50;99.90;;;;;;5030326;28;20736;-77
2021/03/15 07:45:38;;;;;;;2.75;1.55;;;9.60;99.90;;;;;;5030101;28;20293;-77
2021/03/15 07:48:15;;;;;;;2.00;1.55;;;9.70;99.90;;;;;;5030444;28;20228;-77
2021/03/15 07:50:44;;;;;;;2.15;1.77;;;9.80;99.90;;;;;;5030960;28;20222;-78
2021/03/15 07:53:13;;;;;;;2.75;1.80;;;9.80;99.90;;;;;;5031054;28;20754;-78
2021/03/15 07:55:41;;;;;;;2.75;1.80;;;9.80;99.90;;;;;;5022441;28;20220;-78
2021/03/15 07:58:27;;;;;;;3.75;1.35;;;9.60;99.90;;;;;;5019082;28;20713;-78
2021/03/15 08:00:54;;;;;;;1.80;1.70;;;9.40;99.90;;;;;;5026404;28;20216;-78
2021/03/15 08:03:23;;;;;;;2.08;1.98;;;9.30;99.90;;;;;;5014608;28;20222;-78
2021/03/15 08:05:50;;;;;;;3.60;2.58;;;9.30;99.90;;;;;;5027339;28;20196;-78
2021/03/15 08:08:17;;;;;;;2.38;1.80;;;9.20;99.90;;;;;;5017810;28;20690;-76
2021/03/15 08:10:45;;;;;;;2.75;2.10;;;9.10;99.90;;;;;;5024634;28;20203;-76
2021/03/15 08:13:13;;;;;;;2.90;2.15;;;9.10;99.90;;;;;;5015115;28;20615;-76
2021/03/15 08:15:40;;;;;;;2.65;1.70;;;8.90;99.90;;;;;;5020166;28;20310;-77
2021/03/15 08:18:09;;;;;;;6.32;2.50;;;8.80;99.90;;;;;;5030225;28;20249;-77
2021/03/15 08:20:41;;;;;;;2.17;1.98;;;8.80;99.90;;;;;;5030075;28;20195;-80
2021/03/15 08:23:08;;;;;;;3.28;2.00;;;8.80;99.90;;;;;;5029894;28;20192;-76
2021/03/15 08:25:36;;;;;;;4.10;1.55;;;8.90;99.90;;;;;;5030410;28;20420;-76
2021/03/15 08:28:06;;;;;;;2.85;2.28;;;8.90;99.90;;;;;;5029948;28;20215;-76
2021/03/15 08:30:35;;;;;;;4.18;2.33;;;8.90;99.90;;;;;;5021031;28;20195;-75
2021/03/15 08:33:02;;;;;;;2.20;2.00;;;8.80;99.90;;;;;;5029632;28;20223;-77
2021/03/15 08:35:29;;;;;;;2.45;1.80;;;8.90;99.90;;;;;;5027647;28;20215;-78
2021/03/15 08:37:57;;;;;;;3.05;1.60;;;8.90;99.90;;;;;;5030335;28;20195;-78
2021/03/15 08:40:49;;;;;;;2.95;1.70;;;8.90;99.90;;;;;;5019122;28;20237;-77
2021/03/15 08:43:45;;;;;;;2.25;2.05;;;8.80;99.90;;;;;;5028977;28;20289;-77
2021/03/15 08:46:17;;;;;;;2.05;1.85;;;8.80;99.90;;;;;;5019858;28;20242;-78
2021/03/15 08:49:04;;;;;;;2.17;1.98;;;8.80;99.90;;;;;;5029317;28;20265;-77
2021/03/15 08:51:45;;;;;;;3.25;1.70;;;8.80;99.90;;;;;;5029989;28;20227;-76
2021/03/15 08:54:15;;;;;;;2.10;1.90;;;8.80;99.90;;;;;;5030080;28;20214;-76
2021/03/15 08:56:44;;;;;;;3.75;1.65;;;8.80;99.90;;;;;;5016572;28;20216;-76
2021/03/15 08:59:11;;;;;;;3.15;1.85;;;8.80;99.90;;;;;;5022293;28;20258;-77
2021/03/15 09:01:52;;;;;;;2.55;2.05;;;8.70;99.90;;;;;;5030649;28;20215;-77
2021/03/15 09:04:48;;;;;;;4.95;1.92;;;8.70;99.90;;;;;;5023751;28;20192;-76
2021/03/15 09:07:29;;;;;;;5.80;2.20;;;8.70;99.90;;;;;;5024372;28;20231;-76
2021/03/15 09:09:56;;;;;;;4.90;2.22;;;8.70;99.90;;;;;;5028415;28;20230;-76
2021/03/15 09:12:22;;;;;;;4.45;2.53;;;8.70;99.90;;;;;;5031942;28;20215;-77
2021/03/15 09:14:57;;;;;;;8.50;2.70;;;8.70;99.90;;;;;;5033850;28;20212;-76
2021/03/15 09:17:33;;;;;;;5.10;1.90;;;8.70;99.90;;;;;;5019399;28;20638;-76
2021/03/15 09:20:19;;;;;;;2.83;2.30;;;8.70;99.90;;;;;;5014040;28;20196;-78
2021/03/15 09:22:46;;;;;;;5.97;2.00;;;8.70;99.90;;;;;;5015609;28;20274;-77
2021/03/15 09:25:22;;;;;;;6.15;2.22;;;8.70;99.90;;;;;;5016154;28;20228;-77
2021/03/15 09:27:54;;;;;;;4.40;2.40;;;8.70;99.90;;;;;;5021685;28;20694;-77
2021/03/15 09:30:24;;;;;;;2.33;1.63;;;8.70;99.90;;;;;;5030149;28;20196;-76
2021/03/15 09:32:52;;;;;;;3.15;2.00;;;8.60;99.90;;;;;;5033658;28;20188;-76
2021/03/15 09:35:22;;;;;;;3.92;2.28;;;8.60;99.90;;;;;;5018248;28;20224;-76
2021/03/15 09:37:51;;;;;;;3.33;1.98;;;8.60;99.90;;;;;;5017519;28;20222;-76
2021/03/15 09:40:20;;;;;;;4.25;1.85;;;8.50;99.90;;;;;;5023556;28;20215;-76
2021/03/15 09:42:46;;;;;;;3.88;1.80;;;8.50;99.90;;;;;;5031870;28;20215;-76
2021/03/15 09:45:22;;;;;;;3.75;1.50;;;8.60;99.90;;;;;;5033111;28;20215;-76
2021/03/15 09:47:49;;;;;;;5.65;1.50;;;8.60;99.90;;;;;;5017678;28;20282;-76
2021/03/15 09:50:17;;;;;;;4.97;1.80;;;8.70;99.90;;;;;;5013393;28;20239;-76
2021/03/15 09:52:43;;;;;;;4.15;2.00;;;8.70;99.90;;;;;;5015568;28;20223;-76
2021/03/15 09:55:10;;;;;;;7.13;1.88;;;8.70;99.90;;;;;;5027835;28;20609;-75
2021/03/15 09:57:36;;;;;;;2.60;1.80;;;8.70;99.90;;;;;;5030129;28;20290;-76
2021/03/15 10:00:11;;;;;;;3.25;1.60;;;8.80;99.90;;;;;;5031383;28;20212;-75
2021/03/15 10:02:38;;;;;;;2.30;1.98;;;8.70;99.90;;;;;;5013313;28;20666;-75
2021/03/15 10:05:07;;;;;;;1.80;1.60;;;8.70;99.90;;;;;;5029605;28;20207;-75
2021/03/15 10:07:38;;;;;;;3.78;1.45;;;8.70;99.90;;;;;;5032374;28;20258;-76
2021/03/15 10:10:09;;;;;;;3.30;1.83;;;8.70;99.90;;;;;;5020373;28;20220;-76
2021/03/15 10:12:36;;;;;;;4.30;2.05;;;8.60;99.90;;;;;;5024690;28;20707;-75
2021/03/15 10:15:05;;;;;;;1.88;1.63;;;8.60;99.90;;;;;;5031996;28;20218;-75
2021/03/15 10:17:31;;;;;;;3.22;1.50;;;8.60;99.90;;;;;;5032800;28;20237;-75
2021/03/15 10:19:57;;;;;;;2.47;1.60;;;8.60;99.90;;;;;;5032212;28;20318;-75
2021/03/15 10:22:25;;;;;;;3.35;1.75;;;8.70;99.90;;;;;;5029641;28;20203;-75
2021/03/15 10:24:52;;;;;;;4.18;2.38;;;8.90;99.90;;;;;;5026314;28;20578;-76
2021/03/15 10:27:20;;;;;;;9.32;2.13;;;9.00;99.90;;;;;;5031170;28;20370;-75
2021/03/15 10:29:54;;;;;;;10.25;2.55;;;9.10;99.90;;;;;;5031489;28;20609;-76
2021/03/15 10:32:23;;;;;;;4.97;1.40;;;9.00;99.90;;;;;;5027916;28;20242;-74
2021/03/15 10:34:57;;;;;;;4.65;2.25;;;9.00;99.90;;;;;;5025865;28;20606;-75
2021/03/15 10:37:26;;;;;;;2.17;1.30;;;9.00;99.90;;;;;;5032271;28;20184;-75
2021/03/15 10:39:54;;;;;;;6.35;2.10;;;9.00;99.90;;;;;;5020203;28;20227;-75
2021/03/15 10:42:22;;;;;;;3.55;1.67;;;9.00;99.90;;;;;;5028318;28;20224;-75
2021/03/15 10:44:49;;;;;;;3.92;1.83;;;9.00;99.90;;;;;;5030771;28;20227;-76
2021/03/15 10:47:27;;;;;;;3.97;2.03;;;9.10;99.90;;;;;;5030633;28;20238;-75
2021/03/15 10:49:53;;;;;;;2.55;1.50;;;9.00;99.90;;;;;;5031639;28;20236;-75
2021/03/15 10:52:30;;;;;;;3.20;1.77;;;8.90;99.90;;;;;;5012764;28;20216;-74
2021/03/15 10:55:10;;;;;;;2.50;1.40;;;8.90;99.90;;;;;;5012200;28;20211;-75
2021/03/15 10:57:36;;;;;;;4.15;1.92;;;8.90;99.90;;;;;;5031138;28;20215;-76
2021/03/15 11:00:22;;;;;;;5.93;1.63;;;8.90;99.90;;;;;;5031648;28;20211;-76
2021/03/15 11:02:48;;;;;;;1.52;1.20;;;8.90;99.90;;;;;;5031899;28;20831;-75
2021/03/15 11:05:15;;;;;;;4.30;1.50;;;8.90;99.90;;;;;;5031201;28;20219;-76
2021/03/15 11:07:42;;;;;;;6.68;1.25;;;9.00;99.90;;;;;;5015627;28;20228;-75
2021/03/15 11:10:13;;;;;;;8.30;1.73;;;9.00;99.90;;;;;;5026812;28;20215;-75
2021/03/15 11:12:42;;;;;;;6.47;1.98;;;9.00;99.90;;;;;;5025624;28;20219;-75
2021/03/15 11:15:21;;;;;;;2.80;1.35;;;9.00;99.90;;;;;;5030852;28;20743;-76
2021/03/15 11:18:11;;;;;;;5.57;2.17;;;9.10;99.90;;;;;;5021894;28;20196;-76
2021/03/15 11:20:50;;;;;;;2.95;1.52;;;9.00;99.90;;;;;;5011356;28;20722;-76
2021/03/15 11:23:32;;;;;;;3.92;1.60;;;9.00;99.90;;;;;;5024697;28;20690;-76
2021/03/15 11:26:03;;;;;;;4.20;1.63;;;9.10;99.90;;;;;;5020535;28;20205;-76
2021/03/15 11:28:32;;;;;;;2.13;1.15;;;9.20;99.90;;;;;;5030228;28;20195;-76
2021/03/15 11:30:59;;;;;;;7.20;1.60;;;9.20;99.90;;;;;;5025326;28;20200;-76
2021/03/15 11:33:27;;;;;;;4.18;1.85;;;9.20;99.90;;;;;;5025379;28;20218;-76
2021/03/15 11:35:54;;;;;;;3.15;1.33;;;9.20;99.90;;;;;;5031313;28;20199;-76
2021/03/15 11:38:22;;;;;;;4.22;1.70;;;9.20;99.90;;;;;;5022612;28;20231;-76
2021/03/15 11:40:50;;;;;;;7.88;1.52;;;9.20;99.90;;;;;;5030072;28;20285;-76
2021/03/15 11:43:16;;;;;;;1.20;1.00;;;9.20;99.90;;;;;;5030432;28;20293;-76
2021/03/15 11:45:42;;;;;;;2.88;1.30;;;9.30;99.90;;;;;;5016126;28;20262;-76
2021/03/15 11:48:09;;;;;;;3.67;1.23;;;9.40;99.90;;;;;;5017977;28;20590;-76
2021/03/15 11:50:37;;;;;;;6.18;1.50;;;9.40;99.90;;;;;;5030023;28;20319;-75
2021/03/15 11:53:04;;;;;;;2.88;1.40;;;9.40;99.90;;;;;;5030826;28;20194;-75
2021/03/15 11:55:31;;;;;;;3.65;1.15;;;9.40;99.90;;;;;;5013780;28;20220;-76
2021/03/15 11:57:58;;;;;;;2.10;1.13;;;9.40;99.90;;;;;;5030211;28;20215;-75
2021/03/15 12:00:25;;;;;;;1.95;1.05;;;9.40;99.90;;;;;;5019858;28;20219;-75
2021/03/15 12:02:53;;;;;;;4.07;1.10;;;9.40;99.90;;;;;;5030941;28;20242;-75
2021/03/15 12:05:20;;;;;;;3.42;1.35;;;9.40;99.90;;;;;;5027172;28;20268;-75
2021/03/15 12:07:47;;;;;;;4.28;1.05;;;9.40;99.90;;;;;;5030262;28;20733;-75
2021/03/15 12:10:15;;;;;;;5.63;1.50;;;9.40;99.90;;;;;;5029709;28;20587;-76
2021/03/15 12:12:41;;;;;;;2.78;1.30;;;9.40;99.90;;;;;;5029567;28;20212;-75
2021/03/15 12:15:11;;;;;;;5.13;1.83;;;9.40;99.90;;;;;;5029753;28;20681;-76
2021/03/15 12:17:37;;;;;;;4.70;1.35;;;9.40;99.90;;;;;;5029544;28;20192;-76
2021/03/15 12:20:06;;;;;;;3.20;1.08;;;9.40;99.90;;;;;;5030557;28;20215;-76
2021/03/15 12:22:32;;;;;;;2.90;0.90;;;9.30;99.90;;;;;;5030969;28;20216;-76
2021/03/15 12:24:58;;;;;;;1.60;1.15;;;9.40;99.90;;;;;;5015150;28;20667;-76
2021/03/15 12:27:25;;;;;;;2.35;1.10;;;9.40;99.90;;;;;;5014387;28;20889;-76
2021/03/15 12:29:51;;;;;;;6.18;1.98;;;9.50;99.90;;;;;;5025672;28;20203;-76
2021/03/15 12:32:18;;;;;;;6.05;2.50;;;9.40;99.90;;;;;;5027930;28;20215;-75
2021/03/15 12:34:45;;;;;;;3.20;1.08;;;9.50;99.90;;;;;;5011009;28;20803;-76
2021/03/15 12:37:11;;;;;;;2.70;1.10;;;9.50;99.90;;;;;;5010916;28;20224;-76
2021/03/15 12:39:37;;;;;;;1.67;1.00;;;9.50;99.90;;;;;;5018619;28;20223;-76
2021/03/15 12:42:04;;;;;;;2.15;1.42;;;9.50;99.90;;;;;;5022587;28;20220;-76
2021/03/15 12:44:31;;;;;;;2.25;1.00;;;9.50;99.90;;;;;;5028448;28;20214;-76
2021/03/15 12:46:57;;;;;;;2.85;1.65;;;9.50;99.90;;;;;;5018303;28;20215;-76
2021/03/15 12:49:24;;;;;;;2.67;1.00;;;9.50;99.90;;;;;;5028832;28;20605;-77
2021/03/15 12:51:50;;;;;;;1.48;1.00;;;9.50;99.90;;;;;;5017116;28;20191;-76
2021/03/15 12:54:17;;;;;;;4.57;1.05;;;9.60;99.90;;;;;;5032633;28;20220;-76
2021/03/15 12:56:43;;;;;;;3.25;1.20;;;9.60;99.90;;;;;;5023743;28;20256;-76
2021/03/15 12:59:10;;;;;;;3.85;1.20;;;9.60;99.90;;;;;;5014254;28;20216;-75
2021/03/15 13:01:37;;;;;;;1.70;1.20;;;9.50;99.90;;;;;;5023798;28;20635;-76
2021/03/15 13:04:03;;;;;;;4.78;1.10;;;9.50;99.90;;;;;;5025872;28;20200;-76
2021/03/15 13:06:30;;;;;;;3.72;1.23;;;9.50;99.90;;;;;;5021910;28;20216;-76
2021/03/15 13:08:56;;;;;;;5.00;1.35;;;9.50;99.90;;;;;;5029056;28;20203;-76
2021/03/15 13:11:22;;;;;;;4.50;1.25;;;9.50;99.90;;;;;;5032039;28;20216;-76